createdAt,value
2022-11-28T00:00:05.068Z,84.06
2022-11-28T00:01:31.548Z,83.75
2022-11-28T00:02:05.839Z,83.95
2022-11-28T00:03:08.227Z,83.64
2022-11-28T00:04:05.324Z,83.95
2022-11-28T00:05:20.263Z,83.75
2022-11-28T00:06:06.028Z,83.85
2022-11-28T00:07:06.413Z,83.64
2022-11-28T00:08:06.669Z,83.95
2022-11-28T00:09:05.973Z,83.95
2022-11-28T00:10:06.279Z,84.06
2022-11-28T00:11:06.614Z,83.85
2022-11-28T00:12:04.863Z,83.85
2022-11-28T00:13:31.299Z,83.54
2022-11-28T00:14:05.529Z,83.44
2022-11-28T00:15:05.861Z,84.16
2022-11-28T00:16:06.148Z,84.06
2022-11-28T00:17:05.535Z,83.85
2022-11-28T00:18:06.738Z,84.16
2022-11-28T00:19:12.443Z,84.57
2022-11-28T00:20:05.368Z,84.78
2022-11-28T00:21:05.728Z,85.13
2022-11-28T00:22:05.013Z,85.54
2022-11-28T00:23:06.296Z,86.05
2022-11-28T00:24:04.638Z,86.88
2022-11-28T00:25:06.424Z,86.47
2022-11-28T00:26:05.279Z,87.40
2022-11-28T00:27:06.519Z,87.92
2022-11-28T00:28:04.864Z,88.02
2022-11-28T00:29:05.193Z,87.29
2022-11-28T00:30:05.485Z,86.88
2022-11-28T00:31:06.384Z,87.40
2022-11-28T00:32:05.103Z,88.02
2022-11-28T00:33:11.619Z,87.29
2022-11-28T00:34:04.649Z,87.29
2022-11-28T00:35:12.279Z,88.22
2022-11-28T00:36:05.312Z,88.68
2022-11-28T00:37:07.237Z,89.09
2022-11-28T00:38:04.939Z,89.09
2022-11-28T00:39:12.538Z,89.19
2022-11-28T00:40:12.788Z,89.40
2022-11-28T00:41:04.904Z,90.02
2022-11-28T00:42:13.503Z,90.12
2022-11-28T00:43:05.573Z,90.53
2022-11-28T00:44:04.813Z,90.64
2022-11-28T00:45:05.163Z,90.84
2022-11-28T00:46:06.649Z,90.74
2022-11-28T00:47:05.814Z,91.09
2022-11-28T00:48:06.368Z,91.09
2022-11-28T00:49:04.373Z,90.89
2022-11-28T00:50:11.962Z,90.37
2022-11-28T00:51:06.038Z,90.78
2022-11-28T00:52:06.357Z,90.99
2022-11-28T00:53:04.649Z,91.20
2022-11-28T00:54:12.303Z,91.30
2022-11-28T00:55:11.559Z,91.20
2022-11-28T00:56:05.621Z,90.78
2022-11-28T00:57:04.888Z,91.40
2022-11-28T00:58:04.198Z,91.40
2022-11-28T00:59:19.079Z,91.09
2022-11-28T01:00:04.828Z,90.99
2022-11-28T01:01:05.182Z,90.89
2022-11-28T01:02:19.139Z,90.58
2022-11-28T01:03:05.780Z,90.78
2022-11-28T01:04:11.316Z,91.09
2022-11-28T01:05:04.438Z,90.89
2022-11-28T01:06:11.933Z,91.09
2022-11-28T01:07:04.964Z,91.40
2022-11-28T01:08:11.532Z,91.20
2022-11-28T01:09:04.578Z,91.30
2022-11-28T01:10:11.229Z,91.92
2022-11-28T01:11:04.191Z,92.02
2022-11-28T01:12:11.737Z,91.50
2022-11-28T01:13:05.749Z,91.20
2022-11-28T01:14:04.989Z,90.89
2022-11-28T01:15:06.178Z,90.99
2022-11-28T01:16:12.889Z,91.09
2022-11-28T01:17:04.749Z,91.71
2022-11-28T01:18:03.968Z,91.50
2022-11-28T01:19:05.298Z,91.92
2022-11-28T01:20:05.598Z,91.61
2022-11-28T01:21:04.798Z,91.61
2022-11-28T01:22:12.008Z,91.09
2022-11-28T01:23:04.321Z,91.20
2022-11-28T01:24:11.894Z,91.30
2022-11-28T01:25:05.922Z,91.20
2022-11-28T01:26:05.138Z,91.09
2022-11-28T01:27:05.421Z,91.40
2022-11-28T01:28:06.798Z,91.50
2022-11-28T01:29:04.822Z,91.50
2022-11-28T01:30:04.157Z,91.71
2022-11-28T01:31:04.449Z,91.71
2022-11-28T01:32:04.699Z,91.50
2022-11-28T01:33:04.948Z,91.50
2022-11-28T01:34:07.319Z,91.71
2022-11-28T01:35:04.429Z,91.61
2022-11-28T01:36:04.703Z,91.61
2022-11-28T01:37:11.177Z,91.71
2022-11-28T01:38:06.260Z,91.92
2022-11-28T01:39:04.434Z,92.33
2022-11-28T01:40:06.828Z,92.23
2022-11-28T01:41:11.234Z,92.54
2022-11-28T01:42:06.319Z,92.85
2022-11-28T01:43:04.519Z,93.05
2022-11-28T01:44:11.028Z,92.95
2022-11-28T01:45:06.109Z,92.58
2022-11-28T01:46:04.339Z,92.95
2022-11-28T01:47:04.645Z,93.10
2022-11-28T01:48:05.903Z,93.30
2022-11-28T01:49:11.363Z,93.30
2022-11-28T01:50:05.593Z,93.62
2022-11-28T01:51:03.769Z,93.20
2022-11-28T01:52:06.438Z,93.26
2022-11-28T01:53:04.277Z,93.16
2022-11-28T01:54:11.748Z,93.30
2022-11-28T01:55:03.793Z,93.30
2022-11-28T01:56:04.094Z,93.72
2022-11-28T01:57:18.988Z,93.62
2022-11-28T01:58:03.632Z,93.51
2022-11-28T01:59:03.878Z,93.51
2022-11-28T02:00:10.419Z,93.72
2022-11-28T02:01:04.560Z,94.03
2022-11-28T02:02:03.711Z,94.13
2022-11-28T02:03:11.254Z,94.03
2022-11-28T02:04:12.449Z,94.34
2022-11-28T02:05:10.740Z,94.23
2022-11-28T02:06:03.733Z,94.44
2022-11-28T02:07:04.018Z,94.69
2022-11-28T02:08:05.382Z,95.00
2022-11-28T02:09:03.759Z,95.21
2022-11-28T02:10:03.767Z,95.31
2022-11-28T02:11:04.044Z,95.52
2022-11-28T02:12:29.279Z,95.52
2022-11-28T02:13:03.604Z,95.62
2022-11-28T02:14:07.058Z,95.94
2022-11-28T02:15:04.129Z,96.14
2022-11-28T02:16:04.474Z,96.34
2022-11-28T02:17:06.818Z,96.55
2022-11-28T02:18:03.978Z,96.76
2022-11-28T02:19:10.727Z,96.55
2022-11-28T02:20:10.794Z,96.34
2022-11-28T02:21:03.194Z,96.34
2022-11-28T02:22:03.481Z,96.24
2022-11-28T02:23:03.739Z,96.55
2022-11-28T02:24:29.535Z,96.76
2022-11-28T02:25:03.268Z,96.76
2022-11-28T02:26:03.186Z,96.86
2022-11-28T02:27:03.458Z,96.86
2022-11-28T02:28:03.779Z,96.97
2022-11-28T02:29:03.037Z,96.86
2022-11-28T02:30:03.373Z,96.66
2022-11-28T02:31:04.614Z,96.66
2022-11-28T02:32:03.948Z,96.55
2022-11-28T02:33:04.228Z,96.45
2022-11-28T02:34:03.454Z,96.66
2022-11-28T02:35:03.743Z,96.55
2022-11-28T02:36:03.469Z,96.66
2022-11-28T02:37:03.759Z,96.66
2022-11-28T02:38:05.044Z,96.66
2022-11-28T02:39:06.498Z,96.76
2022-11-28T02:40:07.001Z,96.86
2022-11-28T02:41:04.048Z,96.76
2022-11-28T02:42:03.350Z,96.66
2022-11-28T02:43:09.923Z,96.55
2022-11-28T02:44:10.238Z,96.66
2022-11-28T02:45:03.284Z,96.76
2022-11-28T02:46:03.686Z,96.76
2022-11-28T02:47:10.252Z,96.66
2022-11-28T02:48:04.295Z,96.66
2022-11-28T02:49:03.554Z,96.45
2022-11-28T02:50:18.510Z,96.24
2022-11-28T02:51:04.268Z,96.34
2022-11-28T02:52:03.543Z,96.55
2022-11-28T02:53:03.868Z,96.55
2022-11-28T02:54:05.273Z,96.66
2022-11-28T02:55:03.526Z,96.76
2022-11-28T02:56:03.848Z,96.76
2022-11-28T02:57:06.728Z,96.66
2022-11-28T02:58:03.493Z,96.34
2022-11-28T03:00:25.073Z,96.24
2022-11-28T03:00:31.353Z,96.24
2022-11-28T03:01:31.628Z,96.34
2022-11-28T03:02:32.962Z,96.34
2022-11-28T03:03:31.154Z,96.55
2022-11-28T03:04:32.514Z,96.55
2022-11-28T03:05:32.818Z,96.55
2022-11-28T03:06:31.108Z,96.45
2022-11-28T03:07:31.516Z,96.55
2022-11-28T03:08:46.308Z,96.34
2022-11-28T03:09:33.119Z,96.34
2022-11-28T03:10:31.333Z,96.34
2022-11-28T03:11:32.713Z,96.24
2022-11-28T03:12:30.958Z,96.34
2022-11-28T03:13:45.873Z,96.34
2022-11-28T03:14:32.632Z,96.03
2022-11-28T03:15:30.863Z,95.83
2022-11-28T03:16:31.285Z,95.94
2022-11-28T03:17:31.523Z,96.03
2022-11-28T03:18:30.801Z,96.34
2022-11-28T03:19:45.988Z,96.03
2022-11-28T03:20:32.495Z,96.24
2022-11-28T03:21:30.733Z,95.94
2022-11-28T03:22:32.128Z,95.62
2022-11-28T03:23:56.385Z,95.62
2022-11-28T03:24:30.663Z,95.62
2022-11-28T03:25:32.483Z,95.42
2022-11-28T03:26:31.340Z,95.31
2022-11-28T03:27:30.633Z,95.21
2022-11-28T03:28:30.947Z,95.31
2022-11-28T03:29:31.258Z,95.21
2022-11-28T03:30:56.813Z,95.31
2022-11-28T03:31:30.885Z,95.31
2022-11-28T03:32:31.189Z,95.10
2022-11-28T03:33:30.448Z,95.00
2022-11-28T03:34:30.798Z,95.00
2022-11-28T03:35:31.103Z,95.21
2022-11-28T03:36:30.475Z,95.00
2022-11-28T03:37:32.923Z,95.21
2022-11-28T03:38:31.033Z,95.00
2022-11-28T03:39:31.119Z,95.31
2022-11-28T03:40:30.388Z,95.42
2022-11-28T03:41:31.803Z,95.10
2022-11-28T03:42:30.993Z,95.00
2022-11-28T03:43:32.283Z,95.21
2022-11-28T03:44:31.608Z,95.10
2022-11-28T03:45:32.953Z,95.21
2022-11-28T03:46:32.263Z,95.10
2022-11-28T03:47:30.434Z,95.00
2022-11-28T03:48:32.683Z,94.59
2022-11-28T03:49:33.063Z,94.48
2022-11-28T03:50:31.253Z,94.59
2022-11-28T03:51:45.062Z,94.69
2022-11-28T03:52:31.814Z,94.38
2022-11-28T03:53:31.043Z,93.97
2022-11-28T03:54:37.528Z,94.07
2022-11-28T03:55:31.590Z,94.38
2022-11-28T03:56:30.793Z,93.97
2022-11-28T03:57:31.115Z,93.97
2022-11-28T03:58:45.899Z,94.07
2022-11-28T03:59:32.653Z,94.07
2022-11-28T04:00:30.993Z,94.18
2022-11-28T04:01:34.213Z,94.18
2022-11-28T04:02:38.072Z,94.18
2022-11-28T04:03:45.193Z,93.97
2022-11-28T04:04:30.913Z,93.97
2022-11-28T04:05:31.219Z,93.97
2022-11-28T04:06:45.049Z,94.28
2022-11-28T04:07:31.914Z,94.48
2022-11-28T04:08:30.063Z,94.59
2022-11-28T04:09:31.368Z,94.59
2022-11-28T04:10:36.847Z,94.79
2022-11-28T04:11:29.853Z,95.00
2022-11-28T04:12:30.164Z,95.31
2022-11-28T04:13:31.093Z,95.52
2022-11-28T04:14:30.232Z,95.62
2022-11-28T04:15:30.469Z,95.62
2022-11-28T04:16:32.900Z,95.21
2022-11-28T04:17:44.578Z,94.59
2022-11-28T04:18:31.333Z,94.79
2022-11-28T04:19:30.738Z,95.21
2022-11-28T04:20:30.873Z,95.21
2022-11-28T04:21:30.123Z,95.31
2022-11-28T04:22:37.632Z,95.62
2022-11-28T04:23:30.633Z,95.73
2022-11-28T04:24:30.017Z,95.73
2022-11-28T04:25:30.143Z,95.73
2022-11-28T04:26:30.426Z,95.83
2022-11-28T04:27:30.699Z,95.83
2022-11-28T04:28:29.953Z,95.83
2022-11-28T04:29:30.258Z,95.73
2022-11-28T04:30:30.536Z,95.52
2022-11-28T04:31:29.814Z,95.52
2022-11-28T04:32:30.095Z,95.62
2022-11-28T04:33:31.333Z,95.52
2022-11-28T04:34:29.624Z,95.52
2022-11-28T04:35:29.928Z,95.10
2022-11-28T04:36:31.273Z,94.90
2022-11-28T04:37:32.502Z,94.79
2022-11-28T04:38:29.763Z,94.69
2022-11-28T04:39:30.984Z,94.48
2022-11-28T04:40:31.268Z,94.18
2022-11-28T04:41:30.482Z,93.76
2022-11-28T04:42:29.884Z,93.66
2022-11-28T04:43:30.163Z,93.55
2022-11-28T04:44:30.502Z,93.66
2022-11-28T04:45:29.776Z,93.97
2022-11-28T04:46:31.044Z,94.07
2022-11-28T04:47:32.285Z,94.07
2022-11-28T04:48:34.417Z,94.07
2022-11-28T04:49:29.794Z,94.28
2022-11-28T04:50:30.114Z,94.48
2022-11-28T04:51:30.363Z,94.69
2022-11-28T04:52:29.593Z,94.69
2022-11-28T04:53:30.914Z,94.79
2022-11-28T04:54:33.174Z,94.69
2022-11-28T04:55:44.994Z,94.90
2022-11-28T04:56:30.693Z,95.00
2022-11-28T04:57:30.893Z,95.00
2022-11-28T04:58:36.479Z,95.10
2022-11-28T04:59:29.510Z,95.10
2022-11-28T05:00:44.407Z,95.31
2022-11-28T05:01:31.208Z,95.31
2022-11-28T05:02:29.383Z,95.31
2022-11-28T05:03:44.189Z,95.31
2022-11-28T05:04:30.953Z,95.31
2022-11-28T05:05:30.183Z,95.36
2022-11-28T05:06:44.068Z,95.15
2022-11-28T05:07:30.771Z,94.94
2022-11-28T05:08:29.973Z,94.84
2022-11-28T05:09:44.833Z,94.18
2022-11-28T05:10:30.534Z,93.87
2022-11-28T05:11:29.764Z,93.97
2022-11-28T05:12:31.174Z,94.07
2022-11-28T05:13:31.352Z,94.28
2022-11-28T05:14:29.563Z,93.66
2022-11-28T05:15:54.906Z,93.04
2022-11-28T05:16:29.225Z,93.14
2022-11-28T05:17:32.605Z,92.83
2022-11-28T05:18:29.684Z,92.72
2022-11-28T05:19:54.941Z,93.14
2022-11-28T05:20:29.198Z,92.93
2022-11-28T05:21:32.608Z,92.83
2022-11-28T05:22:29.769Z,92.83
2022-11-28T05:23:55.013Z,93.24
2022-11-28T05:24:32.211Z,93.35
2022-11-28T05:25:30.644Z,93.35
2022-11-28T05:26:29.843Z,93.24
2022-11-28T05:27:31.299Z,93.35
2022-11-28T05:28:31.363Z,93.35
2022-11-28T05:29:36.060Z,93.66
2022-11-28T05:30:28.904Z,93.55
2022-11-28T05:31:32.451Z,93.55
2022-11-28T05:32:31.541Z,93.66
2022-11-28T05:33:29.725Z,93.76
2022-11-28T05:34:28.968Z,93.66
2022-11-28T05:35:29.568Z,93.76
2022-11-28T05:36:30.473Z,93.87
2022-11-28T05:37:29.709Z,93.97
2022-11-28T05:38:29.029Z,94.07
2022-11-28T05:39:29.348Z,93.87
2022-11-28T05:40:30.743Z,93.76
2022-11-28T05:41:28.793Z,93.87
2022-11-28T05:42:33.124Z,93.97
2022-11-28T05:43:29.364Z,93.97
2022-11-28T05:44:32.679Z,93.55
2022-11-28T05:45:29.973Z,93.66
2022-11-28T05:46:31.561Z,93.87
2022-11-28T05:47:31.427Z,93.97
2022-11-28T05:48:29.653Z,93.97
2022-11-28T05:49:28.968Z,94.07
2022-11-28T05:50:29.259Z,94.18
2022-11-28T05:51:29.574Z,94.18
2022-11-28T05:52:28.833Z,94.28
2022-11-28T05:53:29.105Z,94.18
2022-11-28T05:54:30.331Z,94.22
2022-11-28T05:55:28.616Z,94.18
2022-11-28T05:56:29.859Z,94.18
2022-11-28T05:57:29.283Z,94.28
2022-11-28T05:58:31.558Z,94.43
2022-11-28T05:59:29.753Z,94.53
2022-11-28T06:00:29.029Z,94.53
2022-11-28T06:01:30.355Z,94.53
2022-11-28T06:02:28.627Z,94.63
2022-11-28T06:03:31.264Z,94.84
2022-11-28T06:04:30.157Z,95.15
2022-11-28T06:05:42.276Z,95.36
2022-11-28T06:06:29.718Z,95.25
2022-11-28T06:07:29.090Z,95.15
2022-11-28T06:08:30.263Z,95.25
2022-11-28T06:09:28.578Z,95.25
2022-11-28T06:10:28.850Z,95.36
2022-11-28T06:11:43.668Z,95.46
2022-11-28T06:12:28.353Z,95.46
2022-11-28T06:13:28.658Z,95.56
2022-11-28T06:15:26.300Z,95.46
2022-11-28T06:15:36.189Z,95.36
2022-11-28T06:16:33.655Z,95.25
2022-11-28T06:17:47.482Z,95.25
2022-11-28T06:18:34.255Z,95.36
2022-11-28T06:19:32.433Z,95.25
2022-11-28T06:20:32.773Z,94.94
2022-11-28T06:21:33.027Z,94.94
2022-11-28T06:22:32.324Z,95.04
2022-11-28T06:23:32.610Z,94.94
2022-11-28T06:25:12.584Z,95.25
2022-11-28T06:25:32.352Z,95.25
2022-11-28T06:26:32.562Z,95.04
2022-11-28T06:27:47.340Z,94.53
2022-11-28T06:28:32.029Z,94.43
2022-11-28T06:29:46.869Z,94.43
2022-11-28T06:30:32.594Z,94.43
2022-11-28T06:31:47.686Z,94.63
2022-11-28T06:32:34.194Z,94.63
2022-11-28T06:33:32.443Z,94.32
2022-11-28T06:35:24.633Z,94.22
2022-11-28T06:35:31.932Z,94.22
2022-11-28T06:36:32.193Z,94.32
2022-11-28T06:37:32.544Z,94.43
2022-11-28T06:38:32.759Z,94.22
2022-11-28T06:39:32.010Z,93.91
2022-11-28T06:40:58.253Z,93.60
2022-11-28T06:41:32.548Z,93.91
2022-11-28T06:42:32.832Z,93.91
2022-11-28T06:43:32.129Z,93.91
2022-11-28T06:45:11.888Z,93.60
2022-11-28T06:45:31.683Z,93.70
2022-11-28T06:46:31.978Z,93.80
2022-11-28T06:47:32.207Z,93.91
2022-11-28T06:48:32.539Z,93.91
2022-11-28T06:49:32.678Z,93.91
2022-11-28T06:50:32.023Z,94.12
2022-11-28T06:51:32.413Z,94.22
2022-11-28T06:52:32.604Z,94.63
2022-11-28T06:53:31.890Z,94.73
2022-11-28T06:54:32.208Z,94.94
2022-11-28T06:55:32.444Z,95.15
2022-11-28T06:56:31.656Z,95.36
2022-11-28T06:57:31.933Z,95.61
2022-11-28T06:58:33.280Z,95.92
2022-11-28T06:59:32.533Z,96.02
2022-11-28T07:00:33.709Z,95.92
2022-11-28T07:01:33.083Z,95.92
2022-11-28T07:02:32.305Z,96.12
2022-11-28T07:03:32.594Z,96.12
2022-11-28T07:04:31.854Z,95.81
2022-11-28T07:05:38.399Z,95.92
2022-11-28T07:06:32.220Z,95.92
2022-11-28T07:07:31.703Z,96.02
2022-11-28T07:08:32.980Z,96.12
2022-11-28T07:09:33.247Z,96.02
2022-11-28T07:10:32.498Z,96.23
2022-11-28T07:11:33.934Z,96.02
2022-11-28T07:12:33.079Z,96.12
2022-11-28T07:13:33.333Z,96.12
2022-11-28T07:14:32.595Z,96.33
2022-11-28T07:15:31.858Z,96.44
2022-11-28T07:16:33.185Z,96.64
2022-11-28T07:17:31.408Z,96.75
2022-11-28T07:18:31.658Z,96.95
2022-11-28T07:19:31.963Z,96.95
2022-11-28T07:20:32.272Z,97.06
2022-11-28T07:21:31.488Z,97.16
2022-11-28T07:22:31.764Z,97.26
2022-11-28T07:23:46.593Z,97.36
2022-11-28T07:24:32.350Z,97.26
2022-11-28T07:25:32.588Z,97.26
2022-11-28T07:26:31.849Z,97.26
2022-11-28T07:27:31.084Z,97.41
2022-11-28T07:28:45.930Z,97.52
2022-11-28T07:29:32.693Z,97.62
2022-11-28T07:30:31.923Z,97.62
2022-11-28T07:31:32.606Z,97.62
2022-11-28T07:32:31.499Z,97.72
2022-11-28T07:33:31.725Z,97.83
2022-11-28T07:34:32.246Z,97.83
2022-11-28T07:35:31.262Z,97.93
2022-11-28T07:36:31.594Z,98.03
2022-11-28T07:37:31.852Z,97.93
2022-11-28T07:38:34.263Z,98.03
2022-11-28T07:39:32.374Z,98.03
2022-11-28T07:40:57.713Z,98.24
2022-11-28T07:41:30.987Z,98.24
2022-11-28T07:42:31.233Z,98.34
2022-11-28T07:43:31.500Z,98.44
2022-11-28T07:44:31.828Z,98.03
2022-11-28T07:45:47.445Z,97.93
2022-11-28T07:46:32.465Z,98.03
2022-11-28T07:47:31.567Z,97.93
2022-11-28T07:48:32.868Z,97.93
2022-11-28T07:49:32.105Z,97.93
2022-11-28T07:50:33.369Z,98.03
2022-11-28T07:51:33.797Z,98.03
2022-11-28T07:52:31.979Z,98.13
2022-11-28T07:53:31.243Z,98.24
2022-11-28T07:54:33.637Z,98.24
2022-11-28T07:55:33.868Z,98.24
2022-11-28T07:57:04.124Z,98.13
2022-11-28T07:57:35.979Z,98.03
2022-11-28T07:58:32.598Z,98.03
2022-11-28T07:59:34.813Z,98.13
2022-11-28T08:00:35.179Z,98.24
2022-11-28T08:01:34.402Z,98.24
2022-11-28T08:02:33.895Z,98.44
2022-11-28T08:03:34.138Z,98.44
2022-11-28T08:04:31.316Z,98.34
2022-11-28T08:05:33.615Z,98.13
2022-11-28T08:06:30.858Z,98.24
2022-11-28T08:07:31.129Z,98.34
2022-11-28T08:08:32.124Z,98.44
2022-11-28T08:09:32.136Z,98.44
2022-11-28T08:10:32.989Z,98.55
2022-11-28T08:11:31.268Z,98.55
2022-11-28T08:12:33.667Z,98.55
2022-11-28T08:13:38.116Z,98.55
2022-11-28T08:14:37.428Z,98.55
2022-11-28T08:15:37.692Z,98.40
2022-11-28T08:16:57.706Z,98.50
2022-11-28T08:17:30.992Z,98.55
2022-11-28T08:18:32.224Z,98.65
2022-11-28T08:19:35.027Z,98.34
2022-11-28T08:20:34.014Z,98.30
2022-11-28T08:21:31.285Z,98.24
2022-11-28T08:22:56.379Z,98.19
2022-11-28T08:23:30.679Z,98.19
2022-11-28T08:24:32.048Z,98.19
2022-11-28T08:25:31.243Z,98.19
2022-11-28T08:26:31.577Z,98.19
2022-11-28T08:27:45.309Z,98.09
2022-11-28T08:28:45.618Z,97.78
2022-11-28T08:29:33.389Z,97.57
2022-11-28T08:30:30.652Z,97.57
2022-11-28T08:31:32.762Z,97.47
2022-11-28T08:32:31.168Z,97.36
2022-11-28T08:33:46.903Z,97.47
2022-11-28T08:34:31.762Z,97.57
2022-11-28T08:35:31.035Z,97.57
2022-11-28T08:36:31.319Z,97.57
2022-11-28T08:37:32.968Z,97.57
2022-11-28T08:38:33.886Z,97.57
2022-11-28T08:39:33.128Z,97.57
2022-11-28T08:40:33.457Z,97.67
2022-11-28T08:41:30.849Z,97.67
2022-11-28T08:42:30.988Z,97.57
2022-11-28T08:43:46.969Z,97.47
2022-11-28T08:44:32.603Z,97.47
2022-11-28T08:45:30.856Z,97.47
2022-11-28T08:46:31.470Z,97.42
2022-11-28T08:47:31.228Z,97.42
2022-11-28T08:48:31.648Z,97.42
2022-11-28T08:49:31.305Z,97.22
2022-11-28T08:50:30.258Z,97.22
2022-11-28T08:51:30.547Z,97.32
2022-11-28T08:52:30.779Z,97.32
2022-11-28T08:53:30.033Z,97.32
2022-11-28T08:54:30.345Z,97.42
2022-11-28T08:55:32.469Z,97.32
2022-11-28T08:56:32.358Z,97.32
2022-11-28T08:57:31.090Z,97.32
2022-11-28T08:58:34.518Z,97.53
2022-11-28T08:59:34.684Z,97.63
2022-11-28T09:00:29.984Z,97.74
2022-11-28T09:01:34.347Z,97.63
2022-11-28T09:02:31.539Z,97.53
2022-11-28T09:03:30.789Z,97.53
2022-11-28T09:04:30.103Z,97.53
2022-11-28T09:05:30.348Z,97.32
2022-11-28T09:06:31.483Z,97.07
2022-11-28T09:07:31.434Z,96.86
2022-11-28T09:08:34.248Z,96.66
2022-11-28T09:09:32.877Z,96.66
2022-11-28T09:10:45.229Z,96.55
2022-11-28T09:11:29.928Z,96.76
2022-11-28T09:12:37.549Z,96.66
2022-11-28T09:13:30.484Z,96.66
2022-11-28T09:14:31.779Z,96.55
2022-11-28T09:15:29.938Z,96.45
2022-11-28T09:16:31.253Z,96.55
2022-11-28T09:17:45.079Z,96.55
2022-11-28T09:18:30.556Z,96.55
2022-11-28T09:19:44.919Z,96.45
2022-11-28T09:20:32.268Z,96.45
2022-11-28T09:21:30.468Z,96.24
2022-11-28T09:22:30.813Z,96.24
2022-11-28T09:23:30.121Z,96.34
2022-11-28T09:24:44.770Z,96.45
2022-11-28T09:25:30.489Z,96.45
2022-11-28T09:26:30.208Z,96.55
2022-11-28T09:27:30.229Z,96.55
2022-11-28T09:28:31.265Z,96.55
2022-11-28T09:29:30.564Z,96.45
2022-11-28T09:30:29.870Z,96.24
2022-11-28T09:31:32.203Z,96.34
2022-11-28T09:32:31.407Z,96.51
2022-11-28T09:33:29.748Z,96.24
2022-11-28T09:34:44.449Z,96.20
2022-11-28T09:35:31.663Z,96.34
2022-11-28T09:36:30.359Z,96.41
2022-11-28T09:37:31.544Z,96.72
2022-11-28T09:38:30.185Z,96.41
2022-11-28T09:39:43.926Z,96.30
2022-11-28T09:40:32.620Z,96.09
2022-11-28T09:42:03.380Z,96.20
2022-11-28T09:42:30.197Z,96.30
2022-11-28T09:43:29.394Z,96.41
2022-11-28T09:44:56.733Z,96.41
2022-11-28T09:45:31.434Z,96.51
2022-11-28T09:46:31.229Z,96.61
2022-11-28T09:47:30.333Z,96.41
2022-11-28T09:48:55.793Z,96.30
2022-11-28T09:49:32.968Z,96.20
2022-11-28T09:50:30.468Z,96.20
2022-11-28T09:51:29.654Z,96.20
2022-11-28T09:52:30.069Z,96.30
2022-11-28T09:53:30.258Z,96.26
2022-11-28T09:54:30.719Z,96.15
2022-11-28T09:55:30.843Z,96.15
2022-11-28T09:56:31.060Z,96.20
2022-11-28T09:57:31.368Z,96.26
2022-11-28T09:58:31.588Z,96.05
2022-11-28T09:59:30.908Z,95.95
2022-11-28T10:00:29.173Z,95.84
2022-11-28T10:01:29.531Z,96.15
2022-11-28T10:02:29.684Z,96.15
2022-11-28T10:03:30.005Z,96.15
2022-11-28T10:04:29.231Z,96.05
2022-11-28T10:05:29.494Z,96.15
2022-11-28T10:06:31.108Z,96.26
2022-11-28T10:07:29.084Z,96.36
2022-11-28T10:08:30.378Z,96.36
2022-11-28T10:09:32.739Z,96.47
2022-11-28T10:10:29.929Z,96.56
2022-11-28T10:11:29.261Z,96.56
2022-11-28T10:12:32.629Z,96.56
2022-11-28T10:13:41.339Z,96.56
2022-11-28T10:14:29.938Z,96.47
2022-11-28T10:15:43.755Z,96.26
2022-11-28T10:16:30.677Z,96.05
2022-11-28T10:17:29.860Z,95.95
2022-11-28T10:18:30.165Z,95.74
2022-11-28T10:19:57.396Z,95.80
2022-11-28T10:20:31.630Z,96.21
2022-11-28T10:21:28.893Z,96.11
2022-11-28T10:23:22.167Z,95.80
2022-11-28T10:23:29.483Z,95.80
2022-11-28T10:24:29.859Z,95.90
2022-11-28T10:25:29.943Z,95.90
2022-11-28T10:26:31.231Z,96.01
2022-11-28T10:27:31.608Z,96.01
2022-11-28T10:28:29.645Z,95.80
2022-11-28T10:29:45.056Z,95.80
2022-11-28T10:30:31.265Z,95.80
2022-11-28T10:31:29.489Z,95.90
2022-11-28T10:32:30.941Z,96.01
2022-11-28T10:33:28.939Z,96.21
2022-11-28T10:34:31.348Z,96.21
2022-11-28T10:35:29.553Z,96.21
2022-11-28T10:36:44.370Z,96.11
2022-11-28T10:37:31.078Z,96.21
2022-11-28T10:38:29.273Z,96.21
2022-11-28T10:39:30.580Z,96.31
2022-11-28T10:40:28.804Z,96.31
2022-11-28T10:41:29.244Z,96.42
2022-11-28T10:42:29.364Z,96.31
2022-11-28T10:43:30.638Z,96.21
2022-11-28T10:44:30.899Z,96.31
2022-11-28T10:45:31.148Z,96.52
2022-11-28T10:46:29.623Z,96.73
2022-11-28T10:48:44.379Z,96.73
2022-11-28T10:48:50.628Z,96.73
2022-11-28T10:49:50.918Z,96.73
2022-11-28T10:50:51.166Z,96.73
2022-11-28T10:51:51.183Z,96.73
2022-11-28T10:52:50.650Z,96.73
2022-11-28T10:53:50.903Z,96.94
2022-11-28T10:54:53.142Z,97.04
2022-11-28T10:55:50.403Z,97.25
2022-11-28T10:56:50.660Z,97.45
2022-11-28T10:57:50.924Z,97.61
2022-11-28T10:58:52.224Z,97.61
2022-11-28T10:59:50.384Z,97.61
2022-11-28T11:00:50.697Z,97.61
2022-11-28T11:01:53.086Z,97.51
2022-11-28T11:02:53.215Z,97.61
2022-11-28T11:03:50.427Z,97.82
2022-11-28T11:04:54.832Z,98.02
2022-11-28T11:05:50.018Z,98.23
2022-11-28T11:07:07.924Z,98.23
2022-11-28T11:07:51.603Z,98.44
2022-11-28T11:08:52.756Z,98.44
2022-11-28T11:09:51.974Z,98.54
2022-11-28T11:10:50.176Z,98.65
2022-11-28T11:11:53.564Z,98.75
2022-11-28T11:12:51.753Z,98.75
2022-11-28T11:13:49.904Z,98.85
2022-11-28T11:14:54.231Z,98.85
2022-11-28T11:15:50.444Z,98.96
2022-11-28T11:16:51.793Z,99.06
2022-11-28T11:17:49.904Z,99.16
2022-11-28T11:18:54.290Z,99.26
2022-11-28T11:19:50.439Z,99.26
2022-11-28T11:20:50.658Z,99.22
2022-11-28T11:21:51.960Z,99.26
2022-11-28T11:22:50.248Z,99.32
2022-11-28T11:23:50.463Z,99.43
2022-11-28T11:24:49.747Z,99.43
2022-11-28T11:25:50.953Z,99.43
2022-11-28T11:26:50.205Z,99.43
2022-11-28T11:27:50.479Z,99.52
2022-11-28T11:28:53.818Z,99.73
2022-11-28T11:29:51.580Z,99.84
2022-11-28T11:30:53.377Z,99.84
2022-11-28T11:31:50.493Z,99.99
2022-11-28T11:32:51.629Z,99.99
2022-11-28T11:33:50.999Z,99.99
2022-11-28T11:34:50.225Z,99.99
2022-11-28T11:35:50.460Z,99.99
2022-11-28T11:36:56.956Z,99.99
2022-11-28T11:37:49.918Z,99.99
2022-11-28T11:38:50.200Z,99.99
2022-11-28T11:39:51.707Z,99.99
2022-11-28T11:40:50.761Z,99.99
2022-11-28T11:41:50.058Z,99.99
2022-11-28T11:42:50.232Z,99.99
2022-11-28T11:43:49.558Z,99.99
2022-11-28T11:44:50.904Z,99.99
2022-11-28T11:45:52.597Z,99.99
2022-11-28T11:46:53.674Z,99.99
2022-11-28T11:47:50.513Z,99.99
2022-11-28T11:48:52.816Z,99.99
2022-11-28T11:49:49.929Z,99.99
2022-11-28T11:50:50.216Z,99.99
2022-11-28T11:51:50.893Z,99.99
2022-11-28T11:52:49.877Z,99.99
2022-11-28T11:53:49.903Z,99.99
2022-11-28T11:54:50.359Z,99.99
2022-11-28T11:55:54.592Z,99.99
2022-11-28T11:57:00.630Z,99.99
2022-11-28T11:57:51.155Z,99.99
2022-11-28T11:58:50.130Z,99.99
2022-11-28T11:59:53.491Z,99.99
2022-11-28T12:00:49.749Z,99.99
2022-11-28T12:01:50.838Z,99.99
2022-11-28T12:02:50.595Z,99.99
2022-11-28T12:03:49.495Z,99.99
2022-11-28T12:04:57.051Z,99.99
2022-11-28T12:06:13.313Z,99.99
2022-11-28T12:06:57.496Z,99.99
2022-11-28T12:07:50.667Z,99.99
2022-11-28T12:08:49.582Z,99.99
2022-11-28T12:09:49.834Z,99.99
2022-11-28T12:10:49.144Z,99.99
2022-11-28T12:11:51.252Z,99.99
2022-11-28T12:12:50.595Z,99.99
2022-11-28T12:13:49.790Z,99.99
2022-11-28T12:14:50.055Z,99.99
2022-11-28T12:15:49.405Z,99.99
2022-11-28T12:16:49.598Z,99.99
2022-11-28T12:17:53.343Z,99.99
2022-11-28T12:18:50.991Z,99.99
2022-11-28T12:19:49.403Z,99.99
2022-11-28T12:20:49.544Z,99.99
2022-11-28T12:21:49.938Z,99.99
2022-11-28T12:22:49.098Z,99.99
2022-11-28T12:24:03.798Z,99.99
2022-11-28T12:24:50.983Z,99.99
2022-11-28T12:25:50.292Z,99.99
2022-11-28T12:26:56.373Z,99.99
2022-11-28T12:27:49.437Z,99.99
2022-11-28T12:28:50.474Z,99.99
2022-11-28T12:29:50.839Z,99.99
2022-11-28T12:30:48.944Z,99.99
2022-11-28T12:31:50.258Z,99.99
2022-11-28T12:32:49.597Z,99.99
2022-11-28T12:33:49.644Z,99.99
2022-11-28T12:34:48.838Z,99.99
2022-11-28T12:35:49.086Z,99.99
2022-11-28T12:36:49.329Z,99.99
2022-11-28T12:38:50.839Z,99.99
2022-11-28T12:39:49.038Z,99.99
2022-11-28T12:40:49.354Z,99.99
2022-11-28T12:41:50.511Z,99.99
2022-11-28T12:42:49.824Z,99.99
2022-11-28T12:43:53.084Z,99.99
2022-11-28T12:44:49.244Z,99.99
2022-11-28T12:45:49.530Z,99.99
2022-11-28T12:46:49.928Z,99.99
2022-11-28T12:47:50.095Z,99.99
2022-11-28T12:48:53.257Z,99.99
2022-11-28T12:49:51.589Z,99.99
2022-11-28T12:50:48.744Z,99.99
2022-11-28T12:51:52.099Z,99.99
2022-11-28T12:52:49.329Z,99.99
2022-11-28T12:53:49.884Z,99.99